sensor_id;sensor_type;location;lat;lon;timestamp;P1;durP1;ratioP1;P2;durP2;ratioP2
64641;SDS011;59936;51.490;5.436;2023-07-28T00:05:18;9.90;;;7.20;;
64641;SDS011;59936;51.490;5.436;2023-07-28T00:07:48;15.40;;;7.70;;
64641;SDS011;59936;51.490;5.436;2023-07-28T00:10:16;13.10;;;7.70;;
64641;SDS011;59936;51.490;5.436;2023-07-28T00:12:45;16.10;;;9.20;;
64641;SDS011;59936;51.490;5.436;2023-07-28T00:15:13;14.40;;;8.40;;
64641;SDS011;59936;51.490;5.436;2023-07-28T00:17:42;21.20;;;9.20;;
64641;SDS011;59936;51.490;5.436;2023-07-28T00:20:11;15.50;;;9.00;;
64641;SDS011;59936;51.490;5.436;2023-07-28T00:22:39;16.10;;;8.40;;
64641;SDS011;59936;51.490;5.436;2023-07-28T00:25:08;14.10;;;8.00;;
64641;SDS011;59936;51.490;5.436;2023-07-28T00:27:37;18.50;;;9.20;;
64641;SDS011;59936;51.490;5.436;2023-07-28T00:30:05;15.50;;;9.10;;
64641;SDS011;59936;51.490;5.436;2023-07-28T00:32:35;17.70;;;9.90;;
64641;SDS011;59936;51.490;5.436;2023-07-28T00:35:03;18.60;;;10.40;;
64641;SDS011;59936;51.490;5.436;2023-07-28T00:37:32;26.00;;;14.00;;
64641;SDS011;59936;51.490;5.436;2023-07-28T00:40:01;30.80;;;14.90;;
64641;SDS011;59936;51.490;5.436;2023-07-28T00:42:30;32.20;;;15.80;;
64641;SDS011;59936;51.490;5.436;2023-07-28T00:44:58;37.60;;;17.90;;
64641;SDS011;59936;51.490;5.436;2023-07-28T00:47:27;29.60;;;14.70;;
64641;SDS011;59936;51.490;5.436;2023-07-28T00:49:55;26.40;;;13.40;;
64641;SDS011;59936;51.490;5.436;2023-07-28T00:52:24;21.90;;;10.40;;
64641;SDS011;59936;51.490;5.436;2023-07-28T00:54:52;20.30;;;9.70;;
64641;SDS011;59936;51.490;5.436;2023-07-28T00:57:21;21.80;;;10.60;;
64641;SDS011;59936;51.490;5.436;2023-07-28T00:59:50;22.40;;;10.50;;
64641;SDS011;59936;51.490;5.436;2023-07-28T01:02:19;21.40;;;9.30;;
64641;SDS011;59936;51.490;5.436;2023-07-28T01:04:49;16.10;;;9.00;;
64641;SDS011;59936;51.490;5.436;2023-07-28T01:07:26;20.00;;;10.10;;
64641;SDS011;59936;51.490;5.436;2023-07-28T01:10:16;17.60;;;9.60;;
64641;SDS011;59936;51.490;5.436;2023-07-28T01:12:53;19.90;;;8.90;;
64641;SDS011;59936;51.490;5.436;2023-07-28T01:15:21;16.30;;;8.40;;
64641;SDS011;59936;51.490;5.436;2023-07-28T01:17:50;17.10;;;8.20;;
64641;SDS011;59936;51.490;5.436;2023-07-28T01:20:19;17.50;;;8.10;;
64641;SDS011;59936;51.490;5.436;2023-07-28T01:28:39;13.50;;;7.60;;
64641;SDS011;59936;51.490;5.436;2023-07-28T01:31:08;14.10;;;7.50;;
64641;SDS011;59936;51.490;5.436;2023-07-28T01:33:37;12.50;;;7.00;;
64641;SDS011;59936;51.490;5.436;2023-07-28T01:36:05;14.70;;;7.40;;
64641;SDS011;59936;51.490;5.436;2023-07-28T01:38:34;12.40;;;7.00;;
64641;SDS011;59936;51.490;5.436;2023-07-28T01:41:03;14.00;;;7.20;;
64641;SDS011;59936;51.490;5.436;2023-07-28T01:43:31;18.30;;;7.80;;
64641;SDS011;59936;51.490;5.436;2023-07-28T01:46:00;15.90;;;8.30;;
64641;SDS011;59936;51.490;5.436;2023-07-28T01:48:28;17.90;;;8.30;;
64641;SDS011;59936;51.490;5.436;2023-07-28T01:50:57;12.70;;;7.30;;
64641;SDS011;59936;51.490;5.436;2023-07-28T01:53:25;21.30;;;8.70;;
64641;SDS011;59936;51.490;5.436;2023-07-28T01:55:54;22.30;;;9.00;;
64641;SDS011;59936;51.490;5.436;2023-07-28T01:58:23;16.90;;;8.00;;
64641;SDS011;59936;51.490;5.436;2023-07-28T02:00:51;22.40;;;9.70;;
64641;SDS011;59936;51.490;5.436;2023-07-28T02:03:20;20.70;;;9.20;;
64641;SDS011;59936;51.490;5.436;2023-07-28T02:05:48;21.00;;;9.80;;
64641;SDS011;59936;51.490;5.436;2023-07-28T02:08:17;24.80;;;9.80;;
64641;SDS011;59936;51.490;5.436;2023-07-28T02:10:45;26.20;;;10.40;;
64641;SDS011;59936;51.490;5.436;2023-07-28T02:13:14;18.40;;;9.00;;
64641;SDS011;59936;51.490;5.436;2023-07-28T02:15:42;28.10;;;10.70;;
64641;SDS011;59936;51.490;5.436;2023-07-28T02:18:11;26.00;;;10.30;;
64641;SDS011;59936;51.490;5.436;2023-07-28T02:20:40;25.40;;;10.80;;
64641;SDS011;59936;51.490;5.436;2023-07-28T02:23:08;30.70;;;11.90;;
64641;SDS011;59936;51.490;5.436;2023-07-28T02:25:37;36.70;;;12.70;;
64641;SDS011;59936;51.490;5.436;2023-07-28T02:28:06;35.60;;;12.70;;
64641;SDS011;59936;51.490;5.436;2023-07-28T02:30:36;31.20;;;12.10;;
64641;SDS011;59936;51.490;5.436;2023-07-28T02:33:05;31.30;;;12.70;;
64641;SDS011;59936;51.490;5.436;2023-07-28T02:35:33;29.30;;;12.60;;
64641;SDS011;59936;51.490;5.436;2023-07-28T02:38:02;34.90;;;12.80;;
64641;SDS011;59936;51.490;5.436;2023-07-28T02:40:31;34.70;;;13.90;;
64641;SDS011;59936;51.490;5.436;2023-07-28T02:43:01;32.80;;;13.90;;
64641;SDS011;59936;51.490;5.436;2023-07-28T02:45:29;31.40;;;13.50;;
64641;SDS011;59936;51.490;5.436;2023-07-28T02:47:58;40.90;;;14.50;;
64641;SDS011;59936;51.490;5.436;2023-07-28T02:50:27;37.20;;;14.90;;
64641;SDS011;59936;51.490;5.436;2023-07-28T02:52:55;38.10;;;15.50;;
64641;SDS011;59936;51.490;5.436;2023-07-28T02:55:24;46.80;;;15.80;;
64641;SDS011;59936;51.490;5.436;2023-07-28T02:57:52;45.00;;;15.80;;
64641;SDS011;59936;51.490;5.436;2023-07-28T03:00:21;42.30;;;14.40;;
64641;SDS011;59936;51.490;5.436;2023-07-28T03:02:49;42.70;;;15.80;;
64641;SDS011;59936;51.490;5.436;2023-07-28T03:05:18;49.80;;;16.80;;
64641;SDS011;59936;51.490;5.436;2023-07-28T03:07:47;50.80;;;16.90;;
64641;SDS011;59936;51.490;5.436;2023-07-28T03:10:16;50.00;;;18.00;;
64641;SDS011;59936;51.490;5.436;2023-07-28T03:12:44;54.30;;;17.60;;
64641;SDS011;59936;51.490;5.436;2023-07-28T03:15:13;49.10;;;17.60;;
64641;SDS011;59936;51.490;5.436;2023-07-28T03:17:41;50.30;;;18.40;;
64641;SDS011;59936;51.490;5.436;2023-07-28T03:20:10;46.20;;;16.20;;
64641;SDS011;59936;51.490;5.436;2023-07-28T03:22:39;50.50;;;17.90;;
64641;SDS011;59936;51.490;5.436;2023-07-28T03:25:08;56.50;;;18.50;;
64641;SDS011;59936;51.490;5.436;2023-07-28T03:27:37;54.70;;;18.40;;
64641;SDS011;59936;51.490;5.436;2023-07-28T03:30:06;51.20;;;19.20;;
64641;SDS011;59936;51.490;5.436;2023-07-28T03:32:35;54.40;;;20.00;;
64641;SDS011;59936;51.490;5.436;2023-07-28T03:35:04;53.10;;;18.60;;
64641;SDS011;59936;51.490;5.436;2023-07-28T03:37:33;51.50;;;19.70;;
64641;SDS011;59936;51.490;5.436;2023-07-28T03:40:02;56.50;;;18.60;;
64641;SDS011;59936;51.490;5.436;2023-07-28T03:42:30;55.00;;;19.80;;
64641;SDS011;59936;51.490;5.436;2023-07-28T03:45:00;58.40;;;19.40;;
64641;SDS011;59936;51.490;5.436;2023-07-28T03:47:29;52.00;;;19.00;;
64641;SDS011;59936;51.490;5.436;2023-07-28T03:49:57;54.40;;;20.20;;
64641;SDS011;59936;51.490;5.436;2023-07-28T03:52:26;50.20;;;20.30;;
64641;SDS011;59936;51.490;5.436;2023-07-28T03:54:55;50.20;;;19.60;;
64641;SDS011;59936;51.490;5.436;2023-07-28T03:57:23;53.40;;;19.90;;
64641;SDS011;59936;51.490;5.436;2023-07-28T03:59:52;57.70;;;20.30;;
64641;SDS011;59936;51.490;5.436;2023-07-28T04:02:20;54.10;;;20.30;;
64641;SDS011;59936;51.490;5.436;2023-07-28T04:04:55;50.80;;;19.30;;
64641;SDS011;59936;51.490;5.436;2023-07-28T04:07:25;53.70;;;19.90;;
64641;SDS011;59936;51.490;5.436;2023-07-28T04:09:54;48.50;;;18.40;;
64641;SDS011;59936;51.490;5.436;2023-07-28T04:12:23;48.30;;;17.00;;
64641;SDS011;59936;51.490;5.436;2023-07-28T04:14:51;40.90;;;17.00;;
64641;SDS011;59936;51.490;5.436;2023-07-28T04:17:20;40.50;;;16.80;;
64641;SDS011;59936;51.490;5.436;2023-07-28T04:19:48;50.70;;;18.70;;
64641;SDS011;59936;51.490;5.436;2023-07-28T04:22:17;35.20;;;15.50;;
64641;SDS011;59936;51.490;5.436;2023-07-28T04:24:45;40.20;;;17.10;;
64641;SDS011;59936;51.490;5.436;2023-07-28T04:27:14;19.60;;;10.10;;
64641;SDS011;59936;51.490;5.436;2023-07-28T04:29:43;39.70;;;16.50;;
64641;SDS011;59936;51.490;5.436;2023-07-28T04:32:12;43.10;;;18.40;;
64641;SDS011;59936;51.490;5.436;2023-07-28T04:34:40;28.40;;;14.40;;
64641;SDS011;59936;51.490;5.436;2023-07-28T04:37:09;30.50;;;15.20;;
64641;SDS011;59936;51.490;5.436;2023-07-28T04:39:37;37.10;;;16.50;;
64641;SDS011;59936;51.490;5.436;2023-07-28T04:42:06;27.00;;;13.20;;
64641;SDS011;59936;51.490;5.436;2023-07-28T04:44:34;27.20;;;14.20;;
64641;SDS011;59936;51.490;5.436;2023-07-28T04:47:05;31.50;;;15.10;;
64641;SDS011;59936;51.490;5.436;2023-07-28T04:49:34;33.10;;;15.90;;
64641;SDS011;59936;51.490;5.436;2023-07-28T04:52:03;32.30;;;15.80;;
64641;SDS011;59936;51.490;5.436;2023-07-28T04:54:32;31.00;;;15.60;;
64641;SDS011;59936;51.490;5.436;2023-07-28T04:57:00;29.10;;;15.80;;
64641;SDS011;59936;51.490;5.436;2023-07-28T04:59:29;30.00;;;14.50;;
64641;SDS011;59936;51.490;5.436;2023-07-28T05:01:58;34.20;;;15.90;;
64641;SDS011;59936;51.490;5.436;2023-07-28T05:04:26;40.70;;;18.30;;
64641;SDS011;59936;51.490;5.436;2023-07-28T05:06:55;33.60;;;16.90;;
64641;SDS011;59936;51.490;5.436;2023-07-28T05:09:23;35.10;;;16.80;;
64641;SDS011;59936;51.490;5.436;2023-07-28T05:11:52;39.00;;;17.90;;
64641;SDS011;59936;51.490;5.436;2023-07-28T05:14:20;43.10;;;18.40;;
64641;SDS011;59936;51.490;5.436;2023-07-28T05:16:49;40.40;;;19.40;;
64641;SDS011;59936;51.490;5.436;2023-07-28T05:19:21;39.00;;;18.30;;
64641;SDS011;59936;51.490;5.436;2023-07-28T05:21:50;41.00;;;19.00;;
64641;SDS011;59936;51.490;5.436;2023-07-28T05:24:18;35.40;;;18.10;;
64641;SDS011;59936;51.490;5.436;2023-07-28T05:26:47;39.70;;;20.30;;
64641;SDS011;59936;51.490;5.436;2023-07-28T05:29:16;40.90;;;21.20;;
64641;SDS011;59936;51.490;5.436;2023-07-28T05:31:45;43.40;;;22.30;;
64641;SDS011;59936;51.490;5.436;2023-07-28T05:34:13;50.10;;;23.70;;
64641;SDS011;59936;51.490;5.436;2023-07-28T05:36:42;51.20;;;25.30;;
64641;SDS011;59936;51.490;5.436;2023-07-28T05:39:12;53.30;;;26.20;;
64641;SDS011;59936;51.490;5.436;2023-07-28T05:41:40;55.40;;;27.20;;
64641;SDS011;59936;51.490;5.436;2023-07-28T05:44:09;60.50;;;28.90;;
64641;SDS011;59936;51.490;5.436;2023-07-28T05:46:37;66.50;;;30.20;;
64641;SDS011;59936;51.490;5.436;2023-07-28T05:49:06;61.50;;;29.40;;
64641;SDS011;59936;51.490;5.436;2023-07-28T05:51:35;66.90;;;30.40;;
64641;SDS011;59936;51.490;5.436;2023-07-28T05:54:03;70.70;;;30.80;;
64641;SDS011;59936;51.490;5.436;2023-07-28T05:56:32;63.60;;;29.80;;
64641;SDS011;59936;51.490;5.436;2023-07-28T05:59:00;65.60;;;31.10;;
64641;SDS011;59936;51.490;5.436;2023-07-28T06:01:29;67.80;;;30.30;;
64641;SDS011;59936;51.490;5.436;2023-07-28T06:03:58;70.40;;;32.50;;
64641;SDS011;59936;51.490;5.436;2023-07-28T06:06:26;79.40;;;33.30;;
64641;SDS011;59936;51.490;5.436;2023-07-28T06:08:55;69.60;;;29.90;;
64641;SDS011;59936;51.490;5.436;2023-07-28T06:11:24;63.30;;;27.70;;
64641;SDS011;59936;51.490;5.436;2023-07-28T06:13:53;66.70;;;28.90;;
64641;SDS011;59936;51.490;5.436;2023-07-28T06:16:21;67.90;;;28.80;;
64641;SDS011;59936;51.490;5.436;2023-07-28T06:18:50;56.10;;;25.10;;
64641;SDS011;59936;51.490;5.436;2023-07-28T06:21:18;53.90;;;25.70;;
64641;SDS011;59936;51.490;5.436;2023-07-28T06:23:47;45.60;;;22.40;;
64641;SDS011;59936;51.490;5.436;2023-07-28T06:26:15;50.20;;;23.70;;
64641;SDS011;59936;51.490;5.436;2023-07-28T06:28:44;46.00;;;21.10;;
64641;SDS011;59936;51.490;5.436;2023-07-28T06:31:13;46.60;;;20.60;;
64641;SDS011;59936;51.490;5.436;2023-07-28T06:33:41;33.80;;;18.00;;
64641;SDS011;59936;51.490;5.436;2023-07-28T06:36:10;35.70;;;18.30;;
64641;SDS011;59936;51.490;5.436;2023-07-28T06:38:39;36.70;;;18.80;;
64641;SDS011;59936;51.490;5.436;2023-07-28T06:41:07;32.10;;;17.00;;
64641;SDS011;59936;51.490;5.436;2023-07-28T06:43:36;27.50;;;16.20;;
64641;SDS011;59936;51.490;5.436;2023-07-28T06:46:04;26.60;;;15.90;;
64641;SDS011;59936;51.490;5.436;2023-07-28T06:48:33;26.90;;;15.30;;
64641;SDS011;59936;51.490;5.436;2023-07-28T06:51:01;27.60;;;15.30;;
64641;SDS011;59936;51.490;5.436;2023-07-28T06:53:30;28.10;;;13.50;;
64641;SDS011;59936;51.490;5.436;2023-07-28T06:55:59;25.00;;;14.20;;
64641;SDS011;59936;51.490;5.436;2023-07-28T06:58:27;24.10;;;14.70;;
64641;SDS011;59936;51.490;5.436;2023-07-28T07:00:56;21.60;;;14.30;;
64641;SDS011;59936;51.490;5.436;2023-07-28T07:03:24;25.80;;;14.20;;
64641;SDS011;59936;51.490;5.436;2023-07-28T07:05:53;22.70;;;13.90;;
64641;SDS011;59936;51.490;5.436;2023-07-28T07:08:22;22.30;;;13.10;;
64641;SDS011;59936;51.490;5.436;2023-07-28T07:10:52;20.20;;;11.90;;
64641;SDS011;59936;51.490;5.436;2023-07-28T07:13:20;21.30;;;11.70;;
64641;SDS011;59936;51.490;5.436;2023-07-28T07:15:49;19.30;;;12.10;;
64641;SDS011;59936;51.490;5.436;2023-07-28T07:18:18;20.20;;;12.70;;
64641;SDS011;59936;51.490;5.436;2023-07-28T07:20:46;24.70;;;12.70;;
64641;SDS011;59936;51.490;5.436;2023-07-28T07:23:15;17.40;;;12.20;;
64641;SDS011;59936;51.490;5.436;2023-07-28T07:25:43;20.90;;;11.90;;
64641;SDS011;59936;51.490;5.436;2023-07-28T07:28:12;18.40;;;11.70;;
64641;SDS011;59936;51.490;5.436;2023-07-28T07:30:40;15.80;;;12.00;;
64641;SDS011;59936;51.490;5.436;2023-07-28T07:33:09;16.30;;;11.70;;
64641;SDS011;59936;51.490;5.436;2023-07-28T07:35:38;18.10;;;11.10;;
64641;SDS011;59936;51.490;5.436;2023-07-28T07:38:06;16.10;;;10.90;;
64641;SDS011;59936;51.490;5.436;2023-07-28T07:40:35;15.40;;;11.10;;
64641;SDS011;59936;51.490;5.436;2023-07-28T07:43:04;13.50;;;10.40;;
64641;SDS011;59936;51.490;5.436;2023-07-28T07:45:33;12.00;;;8.80;;
64641;SDS011;59936;51.490;5.436;2023-07-28T07:48:01;13.40;;;9.60;;
64641;SDS011;59936;51.490;5.436;2023-07-28T07:50:30;11.90;;;10.20;;
64641;SDS011;59936;51.490;5.436;2023-07-28T07:52:58;11.20;;;9.00;;
64641;SDS011;59936;51.490;5.436;2023-07-28T07:55:27;9.70;;;8.80;;
64641;SDS011;59936;51.490;5.436;2023-07-28T07:57:56;11.00;;;8.70;;
64641;SDS011;59936;51.490;5.436;2023-07-28T08:00:25;10.60;;;9.50;;
64641;SDS011;59936;51.490;5.436;2023-07-28T08:02:53;9.20;;;8.30;;
64641;SDS011;59936;51.490;5.436;2023-07-28T08:05:22;10.80;;;9.80;;
64641;SDS011;59936;51.490;5.436;2023-07-28T08:07:50;9.90;;;8.90;;
64641;SDS011;59936;51.490;5.436;2023-07-28T08:10:19;10.80;;;8.50;;
64641;SDS011;59936;51.490;5.436;2023-07-28T08:12:48;4.80;;;4.30;;
64641;SDS011;59936;51.490;5.436;2023-07-28T08:15:17;10.10;;;8.10;;
64641;SDS011;59936;51.490;5.436;2023-07-28T08:17:45;9.20;;;8.30;;
64641;SDS011;59936;51.490;5.436;2023-07-28T08:20:14;8.80;;;7.90;;
64641;SDS011;59936;51.490;5.436;2023-07-28T08:22:42;8.75;;;7.80;;
64641;SDS011;59936;51.490;5.436;2023-07-28T08:25:11;10.50;;;7.60;;
64641;SDS011;59936;51.490;5.436;2023-07-28T08:27:40;8.30;;;7.40;;
64641;SDS011;59936;51.490;5.436;2023-07-28T08:30:08;7.00;;;6.40;;
64641;SDS011;59936;51.490;5.436;2023-07-28T08:32:38;8.60;;;7.30;;
64641;SDS011;59936;51.490;5.436;2023-07-28T08:35:06;11.50;;;6.60;;
64641;SDS011;59936;51.490;5.436;2023-07-28T08:37:35;7.40;;;6.70;;
64641;SDS011;59936;51.490;5.436;2023-07-28T08:40:04;7.30;;;6.55;;
64641;SDS011;59936;51.490;5.436;2023-07-28T08:42:37;6.90;;;6.20;;
64641;SDS011;59936;51.490;5.436;2023-07-28T08:45:07;6.60;;;5.90;;
64641;SDS011;59936;51.490;5.436;2023-07-28T08:47:37;6.30;;;5.80;;
64641;SDS011;59936;51.490;5.436;2023-07-28T08:50:05;6.70;;;6.00;;
64641;SDS011;59936;51.490;5.436;2023-07-28T08:52:34;7.20;;;5.60;;
64641;SDS011;59936;51.490;5.436;2023-07-28T08:55:03;5.80;;;5.40;;
64641;SDS011;59936;51.490;5.436;2023-07-28T08:57:32;8.50;;;6.20;;
64641;SDS011;59936;51.490;5.436;2023-07-28T09:00:07;16.50;;;6.60;;
64641;SDS011;59936;51.490;5.436;2023-07-28T09:02:38;8.40;;;6.40;;
64641;SDS011;59936;51.490;5.436;2023-07-28T09:05:32;5.90;;;5.50;;
64641;SDS011;59936;51.490;5.436;2023-07-28T09:08:01;6.40;;;5.80;;
64641;SDS011;59936;51.490;5.436;2023-07-28T09:10:43;8.10;;;5.00;;
64641;SDS011;59936;51.490;5.436;2023-07-28T09:13:14;5.50;;;5.10;;
64641;SDS011;59936;51.490;5.436;2023-07-28T09:15:45;5.70;;;5.20;;
64641;SDS011;59936;51.490;5.436;2023-07-28T09:18:15;6.60;;;6.10;;
64641;SDS011;59936;51.490;5.436;2023-07-28T09:20:44;7.30;;;6.60;;
64641;SDS011;59936;51.490;5.436;2023-07-28T09:23:13;6.80;;;6.20;;
64641;SDS011;59936;51.490;5.436;2023-07-28T09:25:42;6.40;;;5.90;;
64641;SDS011;59936;51.490;5.436;2023-07-28T09:28:11;6.40;;;5.90;;
64641;SDS011;59936;51.490;5.436;2023-07-28T09:30:44;7.90;;;6.25;;
64641;SDS011;59936;51.490;5.436;2023-07-28T09:33:32;6.40;;;5.90;;
64641;SDS011;59936;51.490;5.436;2023-07-28T09:36:09;6.80;;;6.30;;
64641;SDS011;59936;51.490;5.436;2023-07-28T09:38:41;7.00;;;5.60;;
64641;SDS011;59936;51.490;5.436;2023-07-28T09:41:10;6.00;;;5.50;;
64641;SDS011;59936;51.490;5.436;2023-07-28T09:43:39;5.40;;;5.00;;
64641;SDS011;59936;51.490;5.436;2023-07-28T09:46:09;5.30;;;4.90;;
64641;SDS011;59936;51.490;5.436;2023-07-28T09:48:38;5.20;;;4.80;;
64641;SDS011;59936;51.490;5.436;2023-07-28T09:51:19;7.00;;;5.00;;
64641;SDS011;59936;51.490;5.436;2023-07-28T09:53:53;5.40;;;4.60;;
64641;SDS011;59936;51.490;5.436;2023-07-28T09:56:31;4.30;;;4.00;;
64641;SDS011;59936;51.490;5.436;2023-07-28T09:59:01;3.80;;;3.50;;
64641;SDS011;59936;51.490;5.436;2023-07-28T10:01:35;4.50;;;4.20;;
64641;SDS011;59936;51.490;5.436;2023-07-28T10:04:04;4.00;;;3.80;;
64641;SDS011;59936;51.490;5.436;2023-07-28T10:06:34;4.00;;;3.80;;
64641;SDS011;59936;51.490;5.436;2023-07-28T10:09:03;4.20;;;3.90;;
64641;SDS011;59936;51.490;5.436;2023-07-28T10:11:33;5.30;;;4.30;;
64641;SDS011;59936;51.490;5.436;2023-07-28T10:14:02;5.00;;;4.20;;
64641;SDS011;59936;51.490;5.436;2023-07-28T10:16:37;3.90;;;3.60;;
64641;SDS011;59936;51.490;5.436;2023-07-28T10:19:07;4.00;;;3.70;;
64641;SDS011;59936;51.490;5.436;2023-07-28T10:21:40;5.00;;;3.70;;
64641;SDS011;59936;51.490;5.436;2023-07-28T10:24:08;4.10;;;3.80;;
64641;SDS011;59936;51.490;5.436;2023-07-28T10:26:40;4.90;;;4.50;;
64641;SDS011;59936;51.490;5.436;2023-07-28T10:29:13;4.60;;;4.30;;
64641;SDS011;59936;51.490;5.436;2023-07-28T10:31:49;5.00;;;4.40;;
64641;SDS011;59936;51.490;5.436;2023-07-28T10:34:22;4.00;;;3.70;;
64641;SDS011;59936;51.490;5.436;2023-07-28T10:36:57;4.00;;;3.70;;
64641;SDS011;59936;51.490;5.436;2023-07-28T10:39:27;4.50;;;3.60;;
64641;SDS011;59936;51.490;5.436;2023-07-28T10:42:03;6.40;;;3.70;;
64641;SDS011;59936;51.490;5.436;2023-07-28T10:44:38;3.20;;;3.00;;
64641;SDS011;59936;51.490;5.436;2023-07-28T10:47:10;3.10;;;2.90;;
64641;SDS011;59936;51.490;5.436;2023-07-28T10:49:40;3.00;;;2.80;;
64641;SDS011;59936;51.490;5.436;2023-07-28T10:52:09;3.00;;;2.80;;
64641;SDS011;59936;51.490;5.436;2023-07-28T10:54:37;3.40;;;3.10;;
64641;SDS011;59936;51.490;5.436;2023-07-28T10:57:06;3.00;;;2.90;;
64641;SDS011;59936;51.490;5.436;2023-07-28T10:59:35;2.60;;;2.40;;
64641;SDS011;59936;51.490;5.436;2023-07-28T11:02:04;5.40;;;2.50;;
64641;SDS011;59936;51.490;5.436;2023-07-28T11:04:32;2.50;;;2.00;;
64641;SDS011;59936;51.490;5.436;2023-07-28T11:07:01;2.90;;;1.80;;
64641;SDS011;59936;51.490;5.436;2023-07-28T11:09:29;2.10;;;2.00;;
64641;SDS011;59936;51.490;5.436;2023-07-28T11:11:58;2.00;;;1.80;;
64641;SDS011;59936;51.490;5.436;2023-07-28T11:14:27;2.20;;;2.10;;
64641;SDS011;59936;51.490;5.436;2023-07-28T11:16:55;2.10;;;2.00;;
64641;SDS011;59936;51.490;5.436;2023-07-28T11:19:24;1.70;;;1.60;;
64641;SDS011;59936;51.490;5.436;2023-07-28T11:21:54;2.50;;;1.70;;
64641;SDS011;59936;51.490;5.436;2023-07-28T11:24:23;1.90;;;1.80;;
64641;SDS011;59936;51.490;5.436;2023-07-28T11:26:51;2.00;;;1.90;;
64641;SDS011;59936;51.490;5.436;2023-07-28T11:29:20;2.00;;;1.90;;
64641;SDS011;59936;51.490;5.436;2023-07-28T11:31:49;2.30;;;2.10;;
64641;SDS011;59936;51.490;5.436;2023-07-28T11:34:18;2.10;;;2.00;;
64641;SDS011;59936;51.490;5.436;2023-07-28T11:36:47;2.10;;;2.00;;
64641;SDS011;59936;51.490;5.436;2023-07-28T11:39:16;2.70;;;2.50;;
64641;SDS011;59936;51.490;5.436;2023-07-28T11:41:45;2.10;;;2.00;;
64641;SDS011;59936;51.490;5.436;2023-07-28T11:44:15;2.60;;;2.10;;
64641;SDS011;59936;51.490;5.436;2023-07-28T11:46:44;2.10;;;2.00;;
64641;SDS011;59936;51.490;5.436;2023-07-28T11:49:16;3.00;;;2.10;;
64641;SDS011;59936;51.490;5.436;2023-07-28T11:51:52;2.30;;;2.10;;
64641;SDS011;59936;51.490;5.436;2023-07-28T11:54:24;2.00;;;1.80;;
64641;SDS011;59936;51.490;5.436;2023-07-28T11:56:55;1.80;;;1.70;;
64641;SDS011;59936;51.490;5.436;2023-07-28T11:59:25;2.00;;;1.80;;
64641;SDS011;59936;51.490;5.436;2023-07-28T12:02:02;1.90;;;1.80;;
64641;SDS011;59936;51.490;5.436;2023-07-28T12:04:35;1.90;;;1.80;;
64641;SDS011;59936;51.490;5.436;2023-07-28T12:14:44;2.30;;;1.80;;
64641;SDS011;59936;51.490;5.436;2023-07-28T12:17:13;1.90;;;1.80;;
64641;SDS011;59936;51.490;5.436;2023-07-28T12:22:36;1.70;;;1.60;;
64641;SDS011;59936;51.490;5.436;2023-07-28T12:25:06;1.60;;;1.50;;
64641;SDS011;59936;51.490;5.436;2023-07-28T12:27:35;1.70;;;1.60;;
64641;SDS011;59936;51.490;5.436;2023-07-28T12:30:05;1.70;;;1.60;;
64641;SDS011;59936;51.490;5.436;2023-07-28T12:32:34;1.60;;;1.50;;
64641;SDS011;59936;51.490;5.436;2023-07-28T12:35:03;3.60;;;1.80;;
64641;SDS011;59936;51.490;5.436;2023-07-28T12:37:32;2.00;;;1.60;;
64641;SDS011;59936;51.490;5.436;2023-07-28T12:40:00;3.10;;;1.80;;
64641;SDS011;59936;51.490;5.436;2023-07-28T12:42:29;1.80;;;1.70;;
64641;SDS011;59936;51.490;5.436;2023-07-28T12:44:57;2.00;;;1.90;;
64641;SDS011;59936;51.490;5.436;2023-07-28T12:47:26;4.50;;;1.80;;
64641;SDS011;59936;51.490;5.436;2023-07-28T12:49:55;1.50;;;1.40;;
64641;SDS011;59936;51.490;5.436;2023-07-28T12:52:28;1.50;;;1.40;;
64641;SDS011;59936;51.490;5.436;2023-07-28T12:54:57;1.85;;;1.50;;
64641;SDS011;59936;51.490;5.436;2023-07-28T12:57:32;1.60;;;1.50;;
64641;SDS011;59936;51.490;5.436;2023-07-28T13:00:00;1.20;;;1.20;;
64641;SDS011;59936;51.490;5.436;2023-07-28T13:02:29;2.60;;;1.10;;
64641;SDS011;59936;51.490;5.436;2023-07-28T13:04:57;1.50;;;1.40;;
64641;SDS011;59936;51.490;5.436;2023-07-28T13:07:26;1.40;;;1.30;;
64641;SDS011;59936;51.490;5.436;2023-07-28T13:09:55;1.10;;;1.10;;
64641;SDS011;59936;51.490;5.436;2023-07-28T13:12:23;1.70;;;1.40;;
64641;SDS011;59936;51.490;5.436;2023-07-28T13:14:52;1.70;;;1.60;;
64641;SDS011;59936;51.490;5.436;2023-07-28T13:17:21;1.90;;;1.80;;
64641;SDS011;59936;51.490;5.436;2023-07-28T13:19:49;2.50;;;1.40;;
64641;SDS011;59936;51.490;5.436;2023-07-28T13:22:18;1.70;;;1.60;;
64641;SDS011;59936;51.490;5.436;2023-07-28T13:24:47;1.70;;;1.40;;
64641;SDS011;59936;51.490;5.436;2023-07-28T13:27:15;1.40;;;1.30;;
64641;SDS011;59936;51.490;5.436;2023-07-28T13:29:44;2.90;;;1.20;;
64641;SDS011;59936;51.490;5.436;2023-07-28T13:32:16;1.60;;;1.50;;
64641;SDS011;59936;51.490;5.436;2023-07-28T13:34:52;1.60;;;1.50;;
64641;SDS011;59936;51.490;5.436;2023-07-28T13:37:20;2.00;;;1.80;;
64641;SDS011;59936;51.490;5.436;2023-07-28T13:39:49;1.50;;;1.40;;
64641;SDS011;59936;51.490;5.436;2023-07-28T13:42:18;2.30;;;1.40;;
64641;SDS011;59936;51.490;5.436;2023-07-28T13:44:46;1.50;;;1.40;;
64641;SDS011;59936;51.490;5.436;2023-07-28T13:47:15;1.70;;;1.60;;
64641;SDS011;59936;51.490;5.436;2023-07-28T13:49:43;2.30;;;1.70;;
64641;SDS011;59936;51.490;5.436;2023-07-28T13:52:12;1.40;;;1.40;;
64641;SDS011;59936;51.490;5.436;2023-07-28T13:54:40;2.60;;;1.80;;
64641;SDS011;59936;51.490;5.436;2023-07-28T13:57:09;5.40;;;1.90;;
64641;SDS011;59936;51.490;5.436;2023-07-28T13:59:38;3.40;;;2.30;;
64641;SDS011;59936;51.490;5.436;2023-07-28T14:02:06;2.20;;;1.80;;
64641;SDS011;59936;51.490;5.436;2023-07-28T14:04:35;2.30;;;1.90;;
64641;SDS011;59936;51.490;5.436;2023-07-28T14:07:03;2.00;;;1.60;;
64641;SDS011;59936;51.490;5.436;2023-07-28T14:09:32;3.40;;;2.20;;
64641;SDS011;59936;51.490;5.436;2023-07-28T14:12:01;1.90;;;1.80;;
64641;SDS011;59936;51.490;5.436;2023-07-28T14:14:29;3.00;;;1.80;;
64641;SDS011;59936;51.490;5.436;2023-07-28T14:16:58;2.10;;;2.00;;
64641;SDS011;59936;51.490;5.436;2023-07-28T14:19:26;1.90;;;1.80;;
64641;SDS011;59936;51.490;5.436;2023-07-28T14:21:55;3.50;;;2.00;;
64641;SDS011;59936;51.490;5.436;2023-07-28T14:24:24;2.00;;;1.90;;
64641;SDS011;59936;51.490;5.436;2023-07-28T14:26:52;4.20;;;2.00;;
64641;SDS011;59936;51.490;5.436;2023-07-28T14:29:21;1.70;;;1.60;;
64641;SDS011;59936;51.490;5.436;2023-07-28T14:31:49;2.10;;;2.00;;
64641;SDS011;59936;51.490;5.436;2023-07-28T14:34:18;2.00;;;1.90;;
64641;SDS011;59936;51.490;5.436;2023-07-28T14:36:47;1.50;;;1.50;;
64641;SDS011;59936;51.490;5.436;2023-07-28T14:39:15;2.30;;;1.70;;
64641;SDS011;59936;51.490;5.436;2023-07-28T14:41:44;2.20;;;1.80;;
64641;SDS011;59936;51.490;5.436;2023-07-28T14:44:12;2.00;;;1.80;;
64641;SDS011;59936;51.490;5.436;2023-07-28T14:46:41;1.80;;;1.70;;
64641;SDS011;59936;51.490;5.436;2023-07-28T14:49:09;3.80;;;1.50;;
64641;SDS011;59936;51.490;5.436;2023-07-28T14:51:38;2.60;;;1.40;;
64641;SDS011;59936;51.490;5.436;2023-07-28T14:54:07;1.45;;;1.40;;
64641;SDS011;59936;51.490;5.436;2023-07-28T14:56:35;1.70;;;1.60;;
64641;SDS011;59936;51.490;5.436;2023-07-28T14:59:04;1.80;;;1.70;;
64641;SDS011;59936;51.490;5.436;2023-07-28T15:01:32;3.40;;;1.80;;
64641;SDS011;59936;51.490;5.436;2023-07-28T15:04:01;1.90;;;1.80;;
64641;SDS011;59936;51.490;5.436;2023-07-28T15:06:30;2.10;;;1.90;;
64641;SDS011;59936;51.490;5.436;2023-07-28T15:08:59;1.80;;;1.70;;